sensor_id;sensor_type;location;lat;lon;timestamp;P1;durP1;ratioP1;P2;durP2;ratioP2
70414;SDS011;57837;52.064;113.478;2023-08-30T00:00:24;16.23;;;7.50;;
70414;SDS011;57837;52.064;113.478;2023-08-30T00:03:27;18.02;;;6.90;;
70414;SDS011;57837;52.064;113.478;2023-08-30T00:06:31;14.75;;;6.25;;
70414;SDS011;57837;52.064;113.478;2023-08-30T00:09:34;14.90;;;6.33;;
70414;SDS011;57837;52.064;113.478;2023-08-30T00:12:38;9.93;;;6.78;;
70414;SDS011;57837;52.064;113.478;2023-08-30T00:15:42;15.00;;;6.30;;
70414;SDS011;57837;52.064;113.478;2023-08-30T00:18:45;13.30;;;6.45;;
70414;SDS011;57837;52.064;113.478;2023-08-30T00:21:49;11.05;;;6.57;;
70414;SDS011;57837;52.064;113.478;2023-08-30T00:24:53;11.73;;;5.80;;
70414;SDS011;57837;52.064;113.478;2023-08-30T00:27:57;10.63;;;5.82;;
70414;SDS011;57837;52.064;113.478;2023-08-30T00:31:01;12.32;;;6.40;;
70414;SDS011;57837;52.064;113.478;2023-08-30T00:34:05;24.17;;;7.90;;
70414;SDS011;57837;52.064;113.478;2023-08-30T00:37:08;29.20;;;9.30;;
70414;SDS011;57837;52.064;113.478;2023-08-30T00:40:12;21.60;;;7.60;;
70414;SDS011;57837;52.064;113.478;2023-08-30T00:43:16;24.58;;;8.77;;
70414;SDS011;57837;52.064;113.478;2023-08-30T00:46:20;16.35;;;7.07;;
70414;SDS011;57837;52.064;113.478;2023-08-30T00:49:24;15.70;;;6.85;;
70414;SDS011;57837;52.064;113.478;2023-08-30T00:52:28;15.30;;;6.70;;
70414;SDS011;57837;52.064;113.478;2023-08-30T00:55:32;11.63;;;6.30;;
70414;SDS011;57837;52.064;113.478;2023-08-30T00:58:39;21.58;;;8.35;;
70414;SDS011;57837;52.064;113.478;2023-08-30T01:01:42;26.15;;;8.20;;
70414;SDS011;57837;52.064;113.478;2023-08-30T01:04:47;15.32;;;5.70;;
70414;SDS011;57837;52.064;113.478;2023-08-30T01:07:51;10.13;;;6.32;;
70414;SDS011;57837;52.064;113.478;2023-08-30T01:14:29;14.32;;;5.28;;
70414;SDS011;57837;52.064;113.478;2023-08-30T01:17:41;11.07;;;4.68;;
70414;SDS011;57837;52.064;113.478;2023-08-30T01:20:48;21.65;;;6.00;;
70414;SDS011;57837;52.064;113.478;2023-08-30T01:24:00;162.32;;;13.23;;
70414;SDS011;57837;52.064;113.478;2023-08-30T01:27:09;8.97;;;4.53;;
70414;SDS011;57837;52.064;113.478;2023-08-30T01:30:14;11.35;;;4.85;;
70414;SDS011;57837;52.064;113.478;2023-08-30T01:33:20;30.55;;;5.80;;
70414;SDS011;57837;52.064;113.478;2023-08-30T01:36:26;14.40;;;5.60;;
70414;SDS011;57837;52.064;113.478;2023-08-30T01:39:30;22.90;;;6.45;;
70414;SDS011;57837;52.064;113.478;2023-08-30T01:42:34;20.23;;;5.80;;
70414;SDS011;57837;52.064;113.478;2023-08-30T01:45:40;24.00;;;5.30;;
70414;SDS011;57837;52.064;113.478;2023-08-30T01:48:46;16.75;;;5.15;;
70414;SDS011;57837;52.064;113.478;2023-08-30T01:51:51;13.68;;;6.28;;
70414;SDS011;57837;52.064;113.478;2023-08-30T01:54:55;15.77;;;5.90;;
70414;SDS011;57837;52.064;113.478;2023-08-30T01:58:01;13.43;;;4.70;;
70414;SDS011;57837;52.064;113.478;2023-08-30T02:01:06;14.15;;;4.57;;
70414;SDS011;57837;52.064;113.478;2023-08-30T02:04:11;10.23;;;4.07;;
70414;SDS011;57837;52.064;113.478;2023-08-30T02:07:23;11.70;;;4.50;;
70414;SDS011;57837;52.064;113.478;2023-08-30T02:10:33;5.93;;;3.50;;
70414;SDS011;57837;52.064;113.478;2023-08-30T02:13:41;11.40;;;3.90;;
70414;SDS011;57837;52.064;113.478;2023-08-30T02:16:46;12.32;;;3.65;;
70414;SDS011;57837;52.064;113.478;2023-08-30T02:19:50;6.25;;;2.83;;
70414;SDS011;57837;52.064;113.478;2023-08-30T02:22:59;9.00;;;5.32;;
70414;SDS011;57837;52.064;113.478;2023-08-30T02:26:15;7.00;;;2.75;;
70414;SDS011;57837;52.064;113.478;2023-08-30T02:29:21;5.57;;;2.63;;
70414;SDS011;57837;52.064;113.478;2023-08-30T02:32:24;5.38;;;2.70;;
70414;SDS011;57837;52.064;113.478;2023-08-30T02:35:27;7.55;;;3.13;;
70414;SDS011;57837;52.064;113.478;2023-08-30T02:38:30;10.75;;;2.97;;
70414;SDS011;57837;52.064;113.478;2023-08-30T02:41:34;11.23;;;3.40;;
70414;SDS011;57837;52.064;113.478;2023-08-30T02:44:38;12.90;;;2.40;;
70414;SDS011;57837;52.064;113.478;2023-08-30T02:47:44;11.52;;;3.75;;
70414;SDS011;57837;52.064;113.478;2023-08-30T02:50:49;7.97;;;2.83;;
70414;SDS011;57837;52.064;113.478;2023-08-30T02:53:52;6.88;;;2.78;;
70414;SDS011;57837;52.064;113.478;2023-08-30T02:56:55;6.03;;;2.80;;
70414;SDS011;57837;52.064;113.478;2023-08-30T02:59:59;13.23;;;3.20;;
70414;SDS011;57837;52.064;113.478;2023-08-30T03:03:03;7.63;;;3.00;;
70414;SDS011;57837;52.064;113.478;2023-08-30T03:06:07;8.55;;;2.80;;
70414;SDS011;57837;52.064;113.478;2023-08-30T03:09:10;7.03;;;3.10;;
70414;SDS011;57837;52.064;113.478;2023-08-30T03:12:14;8.65;;;3.78;;
70414;SDS011;57837;52.064;113.478;2023-08-30T03:15:21;5.23;;;2.93;;
70414;SDS011;57837;52.064;113.478;2023-08-30T03:18:24;8.70;;;2.85;;
70414;SDS011;57837;52.064;113.478;2023-08-30T03:21:27;7.22;;;2.78;;
70414;SDS011;57837;52.064;113.478;2023-08-30T03:24:31;6.05;;;3.00;;
70414;SDS011;57837;52.064;113.478;2023-08-30T03:27:36;7.55;;;2.85;;
70414;SDS011;57837;52.064;113.478;2023-08-30T03:30:39;6.63;;;2.80;;
70414;SDS011;57837;52.064;113.478;2023-08-30T03:33:44;27.25;;;3.17;;
70414;SDS011;57837;52.064;113.478;2023-08-30T03:36:49;8.48;;;3.05;;
70414;SDS011;57837;52.064;113.478;2023-08-30T03:39:56;5.68;;;2.80;;
70414;SDS011;57837;52.064;113.478;2023-08-30T03:43:00;7.75;;;2.88;;
70414;SDS011;57837;52.064;113.478;2023-08-30T03:46:03;8.53;;;3.03;;
70414;SDS011;57837;52.064;113.478;2023-08-30T03:49:07;4.78;;;2.90;;
70414;SDS011;57837;52.064;113.478;2023-08-30T03:52:10;7.40;;;3.33;;
70414;SDS011;57837;52.064;113.478;2023-08-30T03:55:15;6.43;;;2.70;;
70414;SDS011;57837;52.064;113.478;2023-08-30T03:58:18;8.48;;;3.38;;
70414;SDS011;57837;52.064;113.478;2023-08-30T04:01:22;7.97;;;2.90;;
70414;SDS011;57837;52.064;113.478;2023-08-30T04:04:25;10.48;;;3.17;;
70414;SDS011;57837;52.064;113.478;2023-08-30T04:07:28;8.35;;;2.90;;
70414;SDS011;57837;52.064;113.478;2023-08-30T04:10:34;6.35;;;2.88;;
70414;SDS011;57837;52.064;113.478;2023-08-30T04:13:38;9.02;;;3.33;;
70414;SDS011;57837;52.064;113.478;2023-08-30T04:16:42;11.43;;;2.60;;
70414;SDS011;57837;52.064;113.478;2023-08-30T04:19:45;7.40;;;3.17;;
70414;SDS011;57837;52.064;113.478;2023-08-30T04:22:48;5.72;;;2.55;;
70414;SDS011;57837;52.064;113.478;2023-08-30T04:25:52;6.07;;;2.70;;
70414;SDS011;57837;52.064;113.478;2023-08-30T04:28:55;7.40;;;3.22;;
70414;SDS011;57837;52.064;113.478;2023-08-30T04:31:58;5.90;;;2.90;;
70414;SDS011;57837;52.064;113.478;2023-08-30T04:35:00;7.00;;;2.90;;
70414;SDS011;57837;52.064;113.478;2023-08-30T04:38:06;5.35;;;2.85;;
70414;SDS011;57837;52.064;113.478;2023-08-30T04:41:10;5.10;;;3.03;;
70414;SDS011;57837;52.064;113.478;2023-08-30T04:44:14;5.57;;;3.03;;
70414;SDS011;57837;52.064;113.478;2023-08-30T04:47:18;7.83;;;3.70;;
70414;SDS011;57837;52.064;113.478;2023-08-30T04:50:21;10.98;;;3.35;;
70414;SDS011;57837;52.064;113.478;2023-08-30T04:53:24;7.25;;;3.40;;
70414;SDS011;57837;52.064;113.478;2023-08-30T04:56:28;5.30;;;3.08;;
70414;SDS011;57837;52.064;113.478;2023-08-30T04:59:32;6.47;;;2.63;;
70414;SDS011;57837;52.064;113.478;2023-08-30T05:02:35;5.63;;;3.40;;
70414;SDS011;57837;52.064;113.478;2023-08-30T05:05:44;7.28;;;3.05;;
70414;SDS011;57837;52.064;113.478;2023-08-30T05:08:50;5.05;;;3.20;;
70414;SDS011;57837;52.064;113.478;2023-08-30T05:11:53;10.30;;;3.90;;
70414;SDS011;57837;52.064;113.478;2023-08-30T05:14:57;9.50;;;3.45;;
70414;SDS011;57837;52.064;113.478;2023-08-30T05:18:02;6.67;;;3.20;;
70414;SDS011;57837;52.064;113.478;2023-08-30T05:21:07;5.95;;;3.35;;
70414;SDS011;57837;52.064;113.478;2023-08-30T05:24:11;7.30;;;3.38;;
70414;SDS011;57837;52.064;113.478;2023-08-30T05:27:14;5.97;;;3.00;;
70414;SDS011;57837;52.064;113.478;2023-08-30T05:30:20;6.13;;;3.30;;
70414;SDS011;57837;52.064;113.478;2023-08-30T05:33:27;6.53;;;3.40;;
70414;SDS011;57837;52.064;113.478;2023-08-30T05:36:54;6.40;;;3.20;;
70414;SDS011;57837;52.064;113.478;2023-08-30T05:40:06;7.47;;;3.60;;
70414;SDS011;57837;52.064;113.478;2023-08-30T05:43:11;10.05;;;3.15;;
70414;SDS011;57837;52.064;113.478;2023-08-30T05:46:14;6.05;;;3.22;;
70414;SDS011;57837;52.064;113.478;2023-08-30T05:49:19;9.87;;;3.40;;
70414;SDS011;57837;52.064;113.478;2023-08-30T05:52:22;5.45;;;2.60;;
70414;SDS011;57837;52.064;113.478;2023-08-30T05:55:28;9.90;;;3.33;;
70414;SDS011;57837;52.064;113.478;2023-08-30T05:58:31;8.75;;;3.40;;
70414;SDS011;57837;52.064;113.478;2023-08-30T06:01:35;5.97;;;2.97;;
70414;SDS011;57837;52.064;113.478;2023-08-30T06:04:38;6.73;;;3.10;;
70414;SDS011;57837;52.064;113.478;2023-08-30T06:07:42;6.93;;;2.78;;
70414;SDS011;57837;52.064;113.478;2023-08-30T06:10:45;6.57;;;3.17;;
70414;SDS011;57837;52.064;113.478;2023-08-30T06:13:49;4.63;;;2.58;;
70414;SDS011;57837;52.064;113.478;2023-08-30T06:16:51;7.78;;;2.97;;
70414;SDS011;57837;52.064;113.478;2023-08-30T06:19:55;6.73;;;3.30;;
70414;SDS011;57837;52.064;113.478;2023-08-30T06:22:58;5.97;;;2.85;;
70414;SDS011;57837;52.064;113.478;2023-08-30T06:26:05;9.98;;;3.30;;
70414;SDS011;57837;52.064;113.478;2023-08-30T06:29:08;13.15;;;3.50;;
70414;SDS011;57837;52.064;113.478;2023-08-30T06:32:11;7.07;;;2.88;;
70414;SDS011;57837;52.064;113.478;2023-08-30T06:35:15;7.73;;;2.93;;
70414;SDS011;57837;52.064;113.478;2023-08-30T06:38:19;5.68;;;3.03;;
70414;SDS011;57837;52.064;113.478;2023-08-30T06:41:23;6.20;;;3.00;;
70414;SDS011;57837;52.064;113.478;2023-08-30T06:44:26;8.10;;;3.22;;
70414;SDS011;57837;52.064;113.478;2023-08-30T06:47:29;6.35;;;3.38;;
70414;SDS011;57837;52.064;113.478;2023-08-30T06:50:32;6.17;;;3.10;;
70414;SDS011;57837;52.064;113.478;2023-08-30T06:53:36;6.22;;;3.17;;
70414;SDS011;57837;52.064;113.478;2023-08-30T06:56:39;8.50;;;3.38;;
70414;SDS011;57837;52.064;113.478;2023-08-30T06:59:43;10.57;;;3.22;;
70414;SDS011;57837;52.064;113.478;2023-08-30T07:02:46;6.53;;;3.00;;
70414;SDS011;57837;52.064;113.478;2023-08-30T07:05:51;8.63;;;3.57;;
70414;SDS011;57837;52.064;113.478;2023-08-30T07:08:55;9.60;;;3.20;;
70414;SDS011;57837;52.064;113.478;2023-08-30T07:11:59;9.27;;;3.25;;
70414;SDS011;57837;52.064;113.478;2023-08-30T07:15:03;6.20;;;2.83;;
70414;SDS011;57837;52.064;113.478;2023-08-30T07:18:08;9.35;;;3.40;;
70414;SDS011;57837;52.064;113.478;2023-08-30T07:21:13;7.20;;;2.83;;
70414;SDS011;57837;52.064;113.478;2023-08-30T07:24:16;5.78;;;2.92;;
70414;SDS011;57837;52.064;113.478;2023-08-30T07:27:20;5.25;;;2.80;;
70414;SDS011;57837;52.064;113.478;2023-08-30T07:30:24;7.15;;;2.75;;
70414;SDS011;57837;52.064;113.478;2023-08-30T07:33:28;10.32;;;3.13;;
70414;SDS011;57837;52.064;113.478;2023-08-30T07:36:31;5.90;;;3.37;;
70414;SDS011;57837;52.064;113.478;2023-08-30T07:39:50;6.15;;;2.80;;
70414;SDS011;57837;52.064;113.478;2023-08-30T07:42:55;10.02;;;3.65;;
70414;SDS011;57837;52.064;113.478;2023-08-30T07:46:01;8.82;;;3.47;;
70414;SDS011;57837;52.064;113.478;2023-08-30T07:49:05;7.53;;;3.58;;
70414;SDS011;57837;52.064;113.478;2023-08-30T07:52:08;7.60;;;2.83;;
70414;SDS011;57837;52.064;113.478;2023-08-30T07:55:13;5.30;;;2.88;;
70414;SDS011;57837;52.064;113.478;2023-08-30T07:58:17;9.93;;;2.78;;
70414;SDS011;57837;52.064;113.478;2023-08-30T08:01:22;7.50;;;3.42;;
70414;SDS011;57837;52.064;113.478;2023-08-30T08:04:25;7.78;;;2.72;;
70414;SDS011;57837;52.064;113.478;2023-08-30T08:07:29;5.13;;;2.77;;
70414;SDS011;57837;52.064;113.478;2023-08-30T08:10:33;5.15;;;2.72;;
70414;SDS011;57837;52.064;113.478;2023-08-30T08:13:37;7.15;;;3.10;;
70414;SDS011;57837;52.064;113.478;2023-08-30T08:16:41;15.93;;;3.40;;
70414;SDS011;57837;52.064;113.478;2023-08-30T08:19:45;5.75;;;3.10;;
70414;SDS011;57837;52.064;113.478;2023-08-30T08:22:48;8.40;;;3.00;;
70414;SDS011;57837;52.064;113.478;2023-08-30T08:26:01;9.93;;;3.17;;
70414;SDS011;57837;52.064;113.478;2023-08-30T08:29:05;10.10;;;3.70;;
70414;SDS011;57837;52.064;113.478;2023-08-30T08:32:09;6.55;;;3.08;;
70414;SDS011;57837;52.064;113.478;2023-08-30T08:35:13;12.27;;;3.80;;
70414;SDS011;57837;52.064;113.478;2023-08-30T08:38:17;7.97;;;3.43;;
70414;SDS011;57837;52.064;113.478;2023-08-30T08:41:21;6.53;;;3.08;;
70414;SDS011;57837;52.064;113.478;2023-08-30T08:44:31;6.75;;;3.10;;
70414;SDS011;57837;52.064;113.478;2023-08-30T08:47:35;6.90;;;3.05;;
70414;SDS011;57837;52.064;113.478;2023-08-30T08:50:40;9.18;;;3.63;;
70414;SDS011;57837;52.064;113.478;2023-08-30T08:53:44;11.20;;;4.67;;
70414;SDS011;57837;52.064;113.478;2023-08-30T08:56:48;6.70;;;3.30;;
70414;SDS011;57837;52.064;113.478;2023-08-30T08:59:54;8.57;;;3.58;;
70414;SDS011;57837;52.064;113.478;2023-08-30T09:02:59;6.47;;;3.22;;
70414;SDS011;57837;52.064;113.478;2023-08-30T09:06:03;12.65;;;3.85;;
70414;SDS011;57837;52.064;113.478;2023-08-30T09:09:08;6.63;;;3.30;;
70414;SDS011;57837;52.064;113.478;2023-08-30T09:12:12;6.60;;;3.13;;
70414;SDS011;57837;52.064;113.478;2023-08-30T09:15:16;7.45;;;3.03;;
70414;SDS011;57837;52.064;113.478;2023-08-30T09:18:23;6.65;;;3.65;;
70414;SDS011;57837;52.064;113.478;2023-08-30T09:21:30;8.15;;;3.40;;
70414;SDS011;57837;52.064;113.478;2023-08-30T09:24:40;8.50;;;3.90;;
70414;SDS011;57837;52.064;113.478;2023-08-30T09:27:44;8.10;;;3.33;;
70414;SDS011;57837;52.064;113.478;2023-08-30T09:30:51;8.80;;;3.38;;
70414;SDS011;57837;52.064;113.478;2023-08-30T09:33:57;8.80;;;3.33;;
70414;SDS011;57837;52.064;113.478;2023-08-30T09:37:02;11.00;;;3.30;;
70414;SDS011;57837;52.064;113.478;2023-08-30T09:40:08;6.33;;;3.30;;
70414;SDS011;57837;52.064;113.478;2023-08-30T09:43:13;8.55;;;3.70;;
70414;SDS011;57837;52.064;113.478;2023-08-30T09:46:22;8.80;;;3.88;;
70414;SDS011;57837;52.064;113.478;2023-08-30T09:49:46;10.52;;;3.90;;
70414;SDS011;57837;52.064;113.478;2023-08-30T09:52:50;11.27;;;4.15;;
70414;SDS011;57837;52.064;113.478;2023-08-30T09:55:56;14.70;;;4.10;;
70414;SDS011;57837;52.064;113.478;2023-08-30T09:59:02;9.00;;;3.50;;
70414;SDS011;57837;52.064;113.478;2023-08-30T10:02:08;7.78;;;3.95;;
70414;SDS011;57837;52.064;113.478;2023-08-30T10:05:13;9.52;;;4.00;;
70414;SDS011;57837;52.064;113.478;2023-08-30T10:08:18;8.50;;;3.45;;
70414;SDS011;57837;52.064;113.478;2023-08-30T10:11:24;10.67;;;3.67;;
70414;SDS011;57837;52.064;113.478;2023-08-30T10:14:30;9.93;;;3.55;;
70414;SDS011;57837;52.064;113.478;2023-08-30T10:17:34;14.32;;;3.63;;
70414;SDS011;57837;52.064;113.478;2023-08-30T10:20:41;14.75;;;4.50;;
70414;SDS011;57837;52.064;113.478;2023-08-30T10:23:46;7.93;;;3.25;;
70414;SDS011;57837;52.064;113.478;2023-08-30T10:26:51;10.80;;;3.10;;
70414;SDS011;57837;52.064;113.478;2023-08-30T10:29:57;14.23;;;3.70;;
70414;SDS011;57837;52.064;113.478;2023-08-30T10:33:12;11.18;;;4.65;;
70414;SDS011;57837;52.064;113.478;2023-08-30T10:36:22;16.73;;;5.72;;
70414;SDS011;57837;52.064;113.478;2023-08-30T10:39:34;20.50;;;5.55;;
70414;SDS011;57837;52.064;113.478;2023-08-30T10:42:39;11.60;;;4.70;;
70414;SDS011;57837;52.064;113.478;2023-08-30T10:45:43;15.88;;;4.93;;
70414;SDS011;57837;52.064;113.478;2023-08-30T10:48:48;18.65;;;5.65;;
70414;SDS011;57837;52.064;113.478;2023-08-30T10:51:55;15.82;;;5.18;;
70414;SDS011;57837;52.064;113.478;2023-08-30T10:58:16;14.70;;;5.20;;
70414;SDS011;57837;52.064;113.478;2023-08-30T11:01:20;17.92;;;6.65;;
70414;SDS011;57837;52.064;113.478;2023-08-30T11:04:24;17.52;;;8.60;;
70414;SDS011;57837;52.064;113.478;2023-08-30T11:07:27;23.75;;;8.07;;
70414;SDS011;57837;52.064;113.478;2023-08-30T11:10:32;15.73;;;6.97;;
70414;SDS011;57837;52.064;113.478;2023-08-30T11:13:36;22.47;;;8.53;;
70414;SDS011;57837;52.064;113.478;2023-08-30T11:16:40;15.70;;;7.38;;
70414;SDS011;57837;52.064;113.478;2023-08-30T11:19:45;37.10;;;7.75;;
70414;SDS011;57837;52.064;113.478;2023-08-30T11:22:48;12.07;;;5.30;;
70414;SDS011;57837;52.064;113.478;2023-08-30T11:25:53;12.93;;;5.28;;
70414;SDS011;57837;52.064;113.478;2023-08-30T11:28:57;12.73;;;4.90;;
70414;SDS011;57837;52.064;113.478;2023-08-30T11:32:10;14.93;;;5.43;;
70414;SDS011;57837;52.064;113.478;2023-08-30T11:35:14;22.83;;;5.90;;
70414;SDS011;57837;52.064;113.478;2023-08-30T11:38:21;16.77;;;4.63;;
70414;SDS011;57837;52.064;113.478;2023-08-30T11:41:26;8.18;;;4.32;;
70414;SDS011;57837;52.064;113.478;2023-08-30T11:44:31;7.93;;;3.80;;
70414;SDS011;57837;52.064;113.478;2023-08-30T11:47:37;14.20;;;5.20;;
70414;SDS011;57837;52.064;113.478;2023-08-30T11:50:44;11.07;;;5.20;;
70414;SDS011;57837;52.064;113.478;2023-08-30T11:53:50;13.13;;;5.70;;
70414;SDS011;57837;52.064;113.478;2023-08-30T11:56:56;27.77;;;11.52;;
70414;SDS011;57837;52.064;113.478;2023-08-30T12:00:08;16.53;;;9.33;;
70414;SDS011;57837;52.064;113.478;2023-08-30T12:03:15;24.27;;;8.52;;
70414;SDS011;57837;52.064;113.478;2023-08-30T12:06:19;23.63;;;7.85;;
70414;SDS011;57837;52.064;113.478;2023-08-30T12:09:30;36.53;;;9.20;;
70414;SDS011;57837;52.064;113.478;2023-08-30T12:12:35;27.77;;;11.40;;
70414;SDS011;57837;52.064;113.478;2023-08-30T12:15:41;30.43;;;11.43;;
70414;SDS011;57837;52.064;113.478;2023-08-30T12:18:47;23.27;;;9.98;;
70414;SDS011;57837;52.064;113.478;2023-08-30T12:21:50;22.00;;;10.60;;
70414;SDS011;57837;52.064;113.478;2023-08-30T12:24:55;24.17;;;9.82;;
70414;SDS011;57837;52.064;113.478;2023-08-30T12:28:05;29.92;;;9.80;;
70414;SDS011;57837;52.064;113.478;2023-08-30T12:31:10;30.00;;;9.30;;
70414;SDS011;57837;52.064;113.478;2023-08-30T12:34:15;34.45;;;9.38;;
70414;SDS011;57837;52.064;113.478;2023-08-30T12:37:19;24.70;;;8.55;;
70414;SDS011;57837;52.064;113.478;2023-08-30T12:40:23;26.95;;;8.10;;
70414;SDS011;57837;52.064;113.478;2023-08-30T12:43:26;24.52;;;8.10;;
70414;SDS011;57837;52.064;113.478;2023-08-30T12:46:30;27.53;;;9.40;;
70414;SDS011;57837;52.064;113.478;2023-08-30T12:49:35;31.63;;;10.57;;
70414;SDS011;57837;52.064;113.478;2023-08-30T12:52:38;34.63;;;10.90;;
70414;SDS011;57837;52.064;113.478;2023-08-30T12:55:43;35.72;;;11.30;;
70414;SDS011;57837;52.064;113.478;2023-08-30T12:58:47;33.45;;;12.90;;
70414;SDS011;57837;52.064;113.478;2023-08-30T13:01:51;28.53;;;11.63;;
70414;SDS011;57837;52.064;113.478;2023-08-30T13:04:56;28.83;;;10.75;;
70414;SDS011;57837;52.064;113.478;2023-08-30T13:08:03;23.95;;;10.07;;
70414;SDS011;57837;52.064;113.478;2023-08-30T13:11:07;22.00;;;8.63;;
70414;SDS011;57837;52.064;113.478;2023-08-30T13:14:10;21.17;;;10.23;;
70414;SDS011;57837;52.064;113.478;2023-08-30T13:17:14;20.80;;;8.93;;
70414;SDS011;57837;52.064;113.478;2023-08-30T13:20:21;33.90;;;11.80;;
70414;SDS011;57837;52.064;113.478;2023-08-30T13:23:25;25.42;;;9.95;;
70414;SDS011;57837;52.064;113.478;2023-08-30T13:26:28;24.55;;;10.38;;
70414;SDS011;57837;52.064;113.478;2023-08-30T13:29:33;33.55;;;15.55;;
70414;SDS011;57837;52.064;113.478;2023-08-30T13:32:37;32.47;;;13.93;;
70414;SDS011;57837;52.064;113.478;2023-08-30T13:35:42;32.80;;;13.73;;
70414;SDS011;57837;52.064;113.478;2023-08-30T13:38:47;31.33;;;11.25;;
70414;SDS011;57837;52.064;113.478;2023-08-30T13:41:51;29.30;;;10.20;;
70414;SDS011;57837;52.064;113.478;2023-08-30T13:44:55;25.23;;;9.48;;
70414;SDS011;57837;52.064;113.478;2023-08-30T13:47:58;24.10;;;9.60;;
70414;SDS011;57837;52.064;113.478;2023-08-30T13:51:03;24.25;;;9.75;;
70414;SDS011;57837;52.064;113.478;2023-08-30T13:54:07;23.50;;;8.65;;
70414;SDS011;57837;52.064;113.478;2023-08-30T13:57:11;23.60;;;8.57;;
70414;SDS011;57837;52.064;113.478;2023-08-30T14:00:15;32.80;;;8.35;;
70414;SDS011;57837;52.064;113.478;2023-08-30T14:03:20;20.47;;;7.57;;
70414;SDS011;57837;52.064;113.478;2023-08-30T14:06:24;21.73;;;7.80;;
70414;SDS011;57837;52.064;113.478;2023-08-30T14:09:28;21.95;;;7.32;;
70414;SDS011;57837;52.064;113.478;2023-08-30T14:12:32;23.95;;;7.25;;
70414;SDS011;57837;52.064;113.478;2023-08-30T14:15:37;21.33;;;5.93;;
70414;SDS011;57837;52.064;113.478;2023-08-30T14:18:42;15.80;;;6.20;;
70414;SDS011;57837;52.064;113.478;2023-08-30T14:21:46;18.40;;;6.70;;
70414;SDS011;57837;52.064;113.478;2023-08-30T14:24:50;19.05;;;6.93;;
70414;SDS011;57837;52.064;113.478;2023-08-30T14:28:14;19.85;;;6.25;;
70414;SDS011;57837;52.064;113.478;2023-08-30T14:31:18;14.05;;;6.28;;
70414;SDS011;57837;52.064;113.478;2023-08-30T14:34:22;16.53;;;6.40;;
70414;SDS011;57837;52.064;113.478;2023-08-30T14:37:26;25.15;;;6.38;;
70414;SDS011;57837;52.064;113.478;2023-08-30T14:40:30;17.90;;;6.68;;
70414;SDS011;57837;52.064;113.478;2023-08-30T14:43:35;16.70;;;6.50;;
70414;SDS011;57837;52.064;113.478;2023-08-30T14:46:38;20.25;;;6.30;;
70414;SDS011;57837;52.064;113.478;2023-08-30T14:49:43;13.97;;;6.77;;
70414;SDS011;57837;52.064;113.478;2023-08-30T14:52:48;16.65;;;7.20;;
70414;SDS011;57837;52.064;113.478;2023-08-30T14:55:52;17.83;;;7.68;;
70414;SDS011;57837;52.064;113.478;2023-08-30T14:58:57;22.48;;;8.07;;
70414;SDS011;57837;52.064;113.478;2023-08-30T15:02:01;17.25;;;6.88;;
70414;SDS011;57837;52.064;113.478;2023-08-30T15:05:04;23.30;;;7.73;;
70414;SDS011;57837;52.064;113.478;2023-08-30T15:08:08;24.63;;;8.38;;
70414;SDS011;57837;52.064;113.478;2023-08-30T15:11:12;19.00;;;8.50;;
70414;SDS011;57837;52.064;113.478;2023-08-30T15:14:16;21.65;;;8.45;;
70414;SDS011;57837;52.064;113.478;2023-08-30T15:17:19;22.88;;;11.48;;
70414;SDS011;57837;52.064;113.478;2023-08-30T15:20:22;26.17;;;8.53;;
70414;SDS011;57837;52.064;113.478;2023-08-30T15:23:26;29.80;;;10.52;;
70414;SDS011;57837;52.064;113.478;2023-08-30T15:26:30;23.98;;;8.95;;
70414;SDS011;57837;52.064;113.478;2023-08-30T15:29:34;28.70;;;9.90;;
70414;SDS011;57837;52.064;113.478;2023-08-30T15:32:38;22.00;;;9.73;;
70414;SDS011;57837;52.064;113.478;2023-08-30T15:35:43;20.37;;;7.73;;
70414;SDS011;57837;52.064;113.478;2023-08-30T15:38:47;18.35;;;7.90;;
70414;SDS011;57837;52.064;113.478;2023-08-30T15:41:52;23.23;;;7.68;;
70414;SDS011;57837;52.064;113.478;2023-08-30T15:44:56;22.67;;;7.95;;
70414;SDS011;57837;52.064;113.478;2023-08-30T15:47:59;15.50;;;7.22;;
70414;SDS011;57837;52.064;113.478;2023-08-30T15:51:03;21.23;;;7.70;;
70414;SDS011;57837;52.064;113.478;2023-08-30T15:54:22;16.50;;;7.13;;
70414;SDS011;57837;52.064;113.478;2023-08-30T15:57:25;18.88;;;6.97;;
70414;SDS011;57837;52.064;113.478;2023-08-30T16:00:28;21.00;;;6.75;;
70414;SDS011;57837;52.064;113.478;2023-08-30T16:03:32;19.40;;;6.95;;
70414;SDS011;57837;52.064;113.478;2023-08-30T16:06:38;24.83;;;6.43;;
70414;SDS011;57837;52.064;113.478;2023-08-30T16:09:42;20.05;;;6.05;;
70414;SDS011;57837;52.064;113.478;2023-08-30T16:12:49;20.67;;;5.43;;
70414;SDS011;57837;52.064;113.478;2023-08-30T16:15:53;32.20;;;5.10;;
70414;SDS011;57837;52.064;113.478;2023-08-30T16:18:57;27.73;;;5.85;;
70414;SDS011;57837;52.064;113.478;2023-08-30T16:22:03;11.80;;;4.63;;
70414;SDS011;57837;52.064;113.478;2023-08-30T16:25:07;12.48;;;5.30;;
70414;SDS011;57837;52.064;113.478;2023-08-30T16:28:11;9.98;;;4.82;;
70414;SDS011;57837;52.064;113.478;2023-08-30T16:31:15;10.77;;;4.50;;
70414;SDS011;57837;52.064;113.478;2023-08-30T16:34:20;9.57;;;4.10;;
70414;SDS011;57837;52.064;113.478;2023-08-30T16:37:24;14.57;;;4.90;;
70414;SDS011;57837;52.064;113.478;2023-08-30T16:40:28;14.48;;;4.75;;
70414;SDS011;57837;52.064;113.478;2023-08-30T16:43:35;15.88;;;4.85;;
70414;SDS011;57837;52.064;113.478;2023-08-30T16:46:38;11.02;;;4.97;;
70414;SDS011;57837;52.064;113.478;2023-08-30T16:49:42;16.60;;;6.18;;
70414;SDS011;57837;52.064;113.478;2023-08-30T16:52:47;17.23;;;5.37;;
70414;SDS011;57837;52.064;113.478;2023-08-30T16:55:51;10.77;;;5.57;;
70414;SDS011;57837;52.064;113.478;2023-08-30T16:58:54;15.65;;;6.28;;
70414;SDS011;57837;52.064;113.478;2023-08-30T17:01:57;15.10;;;6.55;;
70414;SDS011;57837;52.064;113.478;2023-08-30T17:05:02;14.73;;;6.00;;
70414;SDS011;57837;52.064;113.478;2023-08-30T17:08:05;14.63;;;5.97;;
70414;SDS011;57837;52.064;113.478;2023-08-30T17:11:09;13.98;;;6.13;;
70414;SDS011;57837;52.064;113.478;2023-08-30T17:14:14;16.25;;;7.20;;
70414;SDS011;57837;52.064;113.478;2023-08-30T17:17:18;14.27;;;6.40;;
70414;SDS011;57837;52.064;113.478;2023-08-30T17:20:21;16.75;;;6.60;;
70414;SDS011;57837;52.064;113.478;2023-08-30T17:23:25;14.53;;;6.30;;
70414;SDS011;57837;52.064;113.478;2023-08-30T17:26:28;14.70;;;6.05;;
70414;SDS011;57837;52.064;113.478;2023-08-30T17:29:32;17.77;;;7.20;;
70414;SDS011;57837;52.064;113.478;2023-08-30T17:32:36;10.70;;;6.18;;
70414;SDS011;57837;52.064;113.478;2023-08-30T17:35:40;13.52;;;5.65;;
70414;SDS011;57837;52.064;113.478;2023-08-30T17:38:43;13.77;;;5.27;;
70414;SDS011;57837;52.064;113.478;2023-08-30T17:41:46;12.13;;;5.65;;
70414;SDS011;57837;52.064;113.478;2023-08-30T17:44:49;10.13;;;5.45;;
70414;SDS011;57837;52.064;113.478;2023-08-30T17:48:01;13.23;;;6.57;;
70414;SDS011;57837;52.064;113.478;2023-08-30T17:51:06;13.60;;;6.18;;
70414;SDS011;57837;52.064;113.478;2023-08-30T17:54:09;15.00;;;5.63;;
70414;SDS011;57837;52.064;113.478;2023-08-30T17:57:13;14.43;;;5.70;;